Briefing drone pour Saint-chamond

Rechercher une autre localisation

Conditions de vol :


Nous sommes le : Vendredi 27 janvier 2023
Il est 01:07 UTC (02:07 LT)

Lever de soleil : 06:42 UTC (07:42 LT)
Coucher de soleil : 17:07 UTC (18:07 LT)

Météo

L'essentiel des conditions de vol

VIGILANCE MÉTÉO FRANCE - Loire (42)
Vigilance Jaune : Neige-verglas
CARTE TEMSI
CARTES DES FRONTS
METAR de LFMH
LFMH 270100Z AUTO 33010KT 9999 OVC014 M02/M05 Q1018

Date d'émission: 27/01/2023
Heure d'émission: 01:00 UTC
Vent: 330° pour 10 KT (19 km/h)
Visibilité horizontale: > 10 km
Plafond :
- Couvert à 1400ft (427m)
Température: -2 °C
Point de rosée: -5 °C
Humidité: 80%
Pression (QNH): 1018 hPa
TAF de LFMH
LFMH 161901Z 1619/1712 CNL

Conditions prévues :

Heure d'émission : Bulletin éffectué le 16 à 19:00 UTC
Prévision : Valide du 16 a 19:00 UTC au 17 a 12:00 UTC
Nuages : à 0ft (0 m)
WEBCAM POUR SAINT-CHAMOND

Réglementation

Voler en sécurité

CARTES AERONAUTIQUE 1/500.000
CARTE AZBA (Reseau basse altitude)
CARTES VAC (LFMH)
SUP AIP




Chargement des AIP...
NOTAM (SAINT-CHAMOND + Terrain à proximité / FIR )




Chargement des NOTAMS...
CONTACT PREFECTURE 42
Loire (42) : [email protected]


Avertissement : Les données mises à disposition sont indicatives. Oxygène Drone ne pourra être tenu responsable de dégâts causés aux biens et aux personnes.